Time;durP1;ratioP1;P1;durP2;ratioP2;P2;SDS_P1;SDS_P2;PMS_P1;PMS_P2;Temp;Humidity;BMP_temperature;BMP_pressure;BME280_temperature;BME280_humidity;BME280_pressure;Samples;Min_cycle;Max_cycle;Signal;HPM_P1;HPM_P2
2023/12/27 00:00:36;;;;;;;0.00;0.00;;;7.80;99.90;;;;;;5112848;28;20030;-69
2023/12/27 00:03:03;;;;;;;0.28;0.28;;;7.90;99.90;;;;;;5109878;22;20071;-69
2023/12/27 00:05:30;;;;;;;0.77;0.75;;;8.00;99.90;;;;;;5108589;28;20363;-70
2023/12/27 00:07:55;;;;;;;0.00;0.00;;;7.90;99.90;;;;;;5094919;28;20035;-69
2023/12/27 00:10:21;;;;;;;0.00;0.00;;;7.90;99.90;;;;;;5095011;28;20118;-70
2023/12/27 00:12:47;;;;;;;0.55;0.55;;;8.10;99.90;;;;;;5114992;28;20484;-69
2023/12/27 00:15:13;;;;;;;0.05;0.05;;;8.00;99.90;;;;;;5116855;28;20039;-69
2023/12/27 00:17:39;;;;;;;0.00;0.00;;;8.10;99.90;;;;;;5098560;28;20058;-69
2023/12/27 00:20:06;;;;;;;0.05;0.05;;;8.10;99.90;;;;;;5116634;28;20070;-69
2023/12/27 00:22:33;;;;;;;0.20;0.20;;;8.10;99.90;;;;;;5116648;28;20023;-69
2023/12/27 00:24:59;;;;;;;0.00;0.00;;;7.90;99.90;;;;;;5084106;28;20503;-70
2023/12/27 00:27:25;;;;;;;0.00;0.00;;;7.90;99.90;;;;;;5116967;28;20492;-70
2023/12/27 00:29:51;;;;;;;0.00;0.00;;;7.80;99.90;;;;;;5098145;28;20118;-69
2023/12/27 00:32:17;;;;;;;0.00;0.00;;;7.80;99.90;;;;;;5098027;28;20173;-71
2023/12/27 00:34:43;;;;;;;0.00;0.00;;;7.90;99.90;;;;;;5097790;28;20122;-71
2023/12/27 00:37:09;;;;;;;0.05;0.05;;;7.90;99.90;;;;;;5109870;28;20020;-70
2023/12/27 00:39:35;;;;;;;0.38;0.38;;;7.80;99.90;;;;;;5090753;28;20387;-71
2023/12/27 00:42:01;;;;;;;0.52;0.52;;;7.80;99.90;;;;;;5098036;28;20032;-69
2023/12/27 00:44:28;;;;;;;0.00;0.00;;;7.70;99.90;;;;;;5116389;28;20030;-69
2023/12/27 00:46:53;;;;;;;0.00;0.00;;;7.80;99.90;;;;;;5116207;28;20441;-70
2023/12/27 00:49:19;;;;;;;0.98;0.98;;;7.80;99.90;;;;;;5097850;28;20028;-70
2023/12/27 00:51:45;;;;;;;1.35;1.25;;;7.90;99.90;;;;;;5116029;28;20019;-70
2023/12/27 00:54:11;;;;;;;2.13;1.27;;;7.90;99.90;;;;;;5116114;28;20035;-69
2023/12/27 00:56:38;;;;;;;1.48;1.38;;;7.80;99.90;;;;;;5114913;28;20532;-69
2023/12/27 00:59:04;;;;;;;0.00;0.00;;;7.80;99.90;;;;;;5116130;28;20388;-70
2023/12/27 01:01:30;;;;;;;0.25;0.25;;;7.80;99.90;;;;;;5116047;28;20024;-69
2023/12/27 01:03:56;;;;;;;0.17;0.17;;;7.80;99.90;;;;;;5097237;28;20107;-71
2023/12/27 01:06:23;;;;;;;0.08;0.08;;;7.70;99.90;;;;;;5097616;28;20031;-69
2023/12/27 01:08:49;;;;;;;7.43;3.90;;;7.70;99.90;;;;;;5114212;28;20036;-70
2023/12/27 01:11:17;;;;;;;0.10;0.10;;;7.70;99.90;;;;;;5103226;28;20392;-70
2023/12/27 01:13:44;;;;;;;0.10;0.10;;;7.70;99.90;;;;;;5101655;22;20052;-70
2023/12/27 01:16:10;;;;;;;0.00;0.00;;;7.60;99.90;;;;;;5080697;28;20553;-69
2023/12/27 01:18:36;;;;;;;0.20;0.20;;;7.60;99.90;;;;;;5076938;28;20039;-71
2023/12/27 01:21:01;;;;;;;0.00;0.00;;;7.80;99.90;;;;;;5098649;28;20388;-70
2023/12/27 01:23:27;;;;;;;0.00;0.00;;;7.90;99.90;;;;;;5097721;28;20107;-70
2023/12/27 01:25:54;;;;;;;0.10;0.10;;;7.90;99.90;;;;;;5060312;28;20031;-69
2023/12/27 01:28:20;;;;;;;0.00;0.00;;;8.00;99.90;;;;;;5077221;28;20024;-70
2023/12/27 01:30:46;;;;;;;0.63;0.63;;;8.00;99.90;;;;;;5094833;28;20464;-70
2023/12/27 01:33:12;;;;;;;0.00;0.00;;;8.00;99.90;;;;;;5076470;28;20468;-70
2023/12/27 01:35:38;;;;;;;0.00;0.00;;;8.00;99.90;;;;;;5076695;28;20031;-70
2023/12/27 01:38:03;;;;;;;0.00;0.00;;;8.10;99.90;;;;;;5095102;28;20032;-70
2023/12/27 01:40:30;;;;;;;0.00;0.00;;;8.10;99.90;;;;;;5094875;28;20028;-71
2023/12/27 01:42:56;;;;;;;0.00;0.00;;;8.20;99.90;;;;;;5094775;28;20040;-70
2023/12/27 01:45:22;;;;;;;0.73;0.73;;;8.30;99.90;;;;;;5094934;28;20046;-70
2023/12/27 01:47:49;;;;;;;0.40;0.40;;;8.20;99.90;;;;;;5076523;28;20032;-69
2023/12/27 01:50:15;;;;;;;0.52;0.28;;;8.10;99.90;;;;;;5076513;28;20472;-69
2023/12/27 01:52:42;;;;;;;0.17;0.17;;;8.00;99.90;;;;;;5076198;28;20024;-69
2023/12/27 01:55:10;;;;;;;0.00;0.00;;;8.00;99.90;;;;;;5048892;28;20389;-70
2023/12/27 01:57:40;;;;;;;0.38;0.38;;;7.90;99.90;;;;;;5060084;28;20035;-70
2023/12/27 02:00:09;;;;;;;0.20;0.10;;;8.10;99.90;;;;;;5076278;28;20050;-69
2023/12/27 02:02:41;;;;;;;7.10;2.33;;;8.00;99.90;;;;;;5094441;28;20024;-71
2023/12/27 02:05:07;;;;;;;0.10;0.10;;;8.00;99.90;;;;;;5076106;28;20067;-70
2023/12/27 02:07:34;;;;;;;3.80;0.90;;;7.90;99.90;;;;;;5076226;28;20070;-69
2023/12/27 02:10:01;;;;;;;0.80;0.25;;;7.90;99.90;;;;;;5076071;28;20477;-70
2023/12/27 02:12:30;;;;;;;0.00;0.00;;;7.90;99.90;;;;;;5058200;28;20094;-70
2023/12/27 02:14:56;;;;;;;0.32;0.32;;;8.00;99.90;;;;;;5035633;28;20024;-70
2023/12/27 02:17:25;;;;;;;0.00;0.00;;;8.00;99.90;;;;;;5093969;28;20039;-69
2023/12/27 02:19:52;;;;;;;1.52;1.42;;;8.10;99.90;;;;;;5094311;28;20116;-70
2023/12/27 02:22:19;;;;;;;3.28;1.13;;;8.00;99.90;;;;;;5093477;28;20027;-69
2023/12/27 02:24:48;;;;;;;0.10;0.10;;;8.00;99.90;;;;;;5094080;28;20116;-71
2023/12/27 02:27:14;;;;;;;0.38;0.30;;;8.00;99.90;;;;;;5093797;28;20020;-71
2023/12/27 02:29:40;;;;;;;0.75;0.75;;;8.00;99.90;;;;;;5094146;28;20020;-71
2023/12/27 02:32:08;;;;;;;0.50;0.50;;;8.10;99.90;;;;;;5093418;28;20024;-70
2023/12/27 02:34:34;;;;;;;0.50;0.50;;;8.00;99.90;;;;;;5093985;28;20507;-70
2023/12/27 02:37:00;;;;;;;1.75;0.95;;;8.00;99.90;;;;;;5074615;28;20472;-69
2023/12/27 02:39:26;;;;;;;0.03;0.03;;;8.00;99.90;;;;;;5075505;28;20028;-70
2023/12/27 02:41:52;;;;;;;0.32;0.32;;;7.90;99.90;;;;;;5093640;28;20034;-69
2023/12/27 02:44:18;;;;;;;0.32;0.32;;;8.10;99.90;;;;;;5089705;28;20435;-70
2023/12/27 02:46:44;;;;;;;2.00;0.85;;;8.30;99.90;;;;;;5083338;28;20111;-69
2023/12/27 02:49:10;;;;;;;0.00;0.00;;;8.40;99.90;;;;;;5075238;28;20485;-69
2023/12/27 02:51:36;;;;;;;1.38;1.30;;;8.40;99.90;;;;;;5093691;28;20111;-70
2023/12/27 02:54:02;;;;;;;0.00;0.00;;;8.30;99.90;;;;;;5093263;28;20111;-71
2023/12/27 02:56:27;;;;;;;0.63;0.63;;;8.40;99.90;;;;;;5093622;28;20407;-70
2023/12/27 02:58:55;;;;;;;0.40;0.40;;;8.50;99.90;;;;;;5093560;28;20479;-70
2023/12/27 03:01:20;;;;;;;0.40;0.40;;;8.50;99.90;;;;;;5093025;28;20025;-69
2023/12/27 03:03:46;;;;;;;0.40;0.40;;;8.40;99.90;;;;;;5075211;28;20069;-71
2023/12/27 03:06:13;;;;;;;0.57;0.57;;;8.40;99.90;;;;;;5075000;28;20051;-68
2023/12/27 03:08:39;;;;;;;0.38;0.38;;;8.40;99.90;;;;;;5093366;28;20464;-68
2023/12/27 03:11:06;;;;;;;0.30;0.28;;;8.50;99.90;;;;;;5093157;28;20031;-71
2023/12/27 03:13:34;;;;;;;4.63;1.17;;;8.50;99.90;;;;;;5074846;28;20078;-69
2023/12/27 03:16:06;;;;;;;0.55;0.55;;;8.80;99.90;;;;;;5075011;28;20118;-69
2023/12/27 03:18:33;;;;;;;0.10;0.10;;;8.70;99.90;;;;;;5093005;28;20110;-69
2023/12/27 03:20:59;;;;;;;0.00;0.00;;;8.70;99.90;;;;;;5093204;28;20027;-70
2023/12/27 03:23:25;;;;;;;3.63;1.17;;;8.70;99.90;;;;;;5074801;28;20495;-71
2023/12/27 03:25:51;;;;;;;0.55;0.55;;;8.80;99.90;;;;;;5075037;28;20016;-69
2023/12/27 03:28:17;;;;;;;0.38;0.38;;;8.80;99.90;;;;;;5074935;28;20028;-70
2023/12/27 03:30:43;;;;;;;0.00;0.00;;;8.90;99.90;;;;;;5093005;28;20028;-69
2023/12/27 03:33:09;;;;;;;0.05;0.05;;;8.70;99.90;;;;;;5074797;28;20046;-69
2023/12/27 03:35:36;;;;;;;0.98;0.63;;;8.60;99.90;;;;;;5074847;28;20012;-69
2023/12/27 03:38:02;;;;;;;5.32;1.67;;;8.40;99.90;;;;;;5092973;28;20103;-69
2023/12/27 03:40:28;;;;;;;0.63;0.63;;;8.30;99.90;;;;;;5074469;28;20038;-69
2023/12/27 03:42:54;;;;;;;16.75;2.58;;;8.30;99.90;;;;;;5092722;28;20027;-68
2023/12/27 03:45:19;;;;;;;0.15;0.15;;;8.20;99.90;;;;;;5092809;28;20104;-69
2023/12/27 03:47:46;;;;;;;0.20;0.20;;;8.30;99.90;;;;;;5095020;28;20053;-70
2023/12/27 03:50:12;;;;;;;0.38;0.38;;;8.40;99.90;;;;;;5078980;28;20028;-70
2023/12/27 03:52:38;;;;;;;0.00;0.00;;;8.50;99.90;;;;;;5096840;28;20040;-70
2023/12/27 03:55:05;;;;;;;0.25;0.25;;;8.40;99.90;;;;;;5096841;28;20028;-69
2023/12/27 03:57:39;;;;;;;0.47;0.43;;;8.40;99.90;;;;;;5096665;28;20073;-69
2023/12/27 04:00:06;;;;;;;32.50;13.85;;;8.50;99.90;;;;;;5096281;28;20038;-69
2023/12/27 04:02:33;;;;;;;0.10;0.10;;;8.50;99.90;;;;;;5096616;28;20028;-69
2023/12/27 04:04:59;;;;;;;0.32;0.32;;;8.50;99.90;;;;;;5096628;28;20049;-69
2023/12/27 04:07:25;;;;;;;0.20;0.20;;;8.60;99.90;;;;;;5096825;28;20469;-69
2023/12/27 04:09:51;;;;;;;1.00;1.00;;;8.70;99.90;;;;;;5096561;28;20034;-69
2023/12/27 04:12:17;;;;;;;0.00;0.00;;;8.70;99.90;;;;;;5096201;28;20028;-69
2023/12/27 04:14:43;;;;;;;4.63;1.63;;;8.70;99.90;;;;;;5096265;28;20137;-69
2023/12/27 04:17:09;;;;;;;1.17;0.90;;;8.70;99.90;;;;;;5096653;28;20473;-69
2023/12/27 04:19:35;;;;;;;0.28;0.28;;;8.80;99.90;;;;;;5078055;28;20438;-70
2023/12/27 04:22:01;;;;;;;8.50;1.42;;;8.80;99.90;;;;;;5096925;28;20020;-70
2023/12/27 04:24:27;;;;;;;1.30;1.20;;;8.80;99.90;;;;;;5078109;28;20027;-69
2023/12/27 04:26:53;;;;;;;1.20;1.05;;;8.90;99.90;;;;;;5077758;28;20039;-71
2023/12/27 04:29:19;;;;;;;0.75;0.75;;;8.90;99.90;;;;;;5096351;28;20035;-69
2023/12/27 04:31:44;;;;;;;3.03;1.63;;;8.90;99.90;;;;;;5078271;28;20028;-68
2023/12/27 04:34:11;;;;;;;0.75;0.70;;;9.00;99.90;;;;;;5095910;28;20032;-70
2023/12/27 04:36:37;;;;;;;2.10;1.05;;;8.90;99.90;;;;;;5077892;28;20052;-69
2023/12/27 04:39:03;;;;;;;0.45;0.45;;;8.80;99.90;;;;;;5077756;28;20066;-70
2023/12/27 04:41:29;;;;;;;1.55;1.10;;;8.80;99.90;;;;;;5077560;28;20452;-71
2023/12/27 04:43:55;;;;;;;4.32;0.95;;;8.90;99.90;;;;;;5077706;28;20461;-70
2023/12/27 04:46:21;;;;;;;2.28;0.77;;;9.00;99.90;;;;;;5096054;28;20122;-69
2023/12/27 04:48:46;;;;;;;2.00;0.50;;;9.00;99.90;;;;;;5095877;28;20024;-69
2023/12/27 04:51:13;;;;;;;4.53;1.35;;;9.10;99.90;;;;;;5095610;28;20540;-70
2023/12/27 04:53:39;;;;;;;1.40;0.73;;;9.10;99.90;;;;;;5077467;28;20114;-68
2023/12/27 04:56:06;;;;;;;0.30;0.30;;;9.10;99.90;;;;;;5060843;28;20031;-70
2023/12/27 04:58:36;;;;;;;3.28;0.63;;;9.00;99.90;;;;;;5076704;28;20078;-69
2023/12/27 05:01:08;;;;;;;1.65;1.27;;;9.10;99.90;;;;;;5077178;28;20042;-68
2023/12/27 05:03:38;;;;;;;1.20;1.15;;;9.10;99.90;;;;;;5095645;28;20375;-70
2023/12/27 05:06:10;;;;;;;2.15;1.95;;;9.10;99.90;;;;;;5075477;28;20034;-69
2023/12/27 05:08:40;;;;;;;0.65;0.65;;;9.10;99.90;;;;;;5053441;28;20073;-70
2023/12/27 05:11:13;;;;;;;5.30;2.08;;;9.20;99.90;;;;;;5094922;28;20032;-70
2023/12/27 05:13:40;;;;;;;0.20;0.20;;;9.20;99.90;;;;;;5095119;28;20036;-69
2023/12/27 05:16:10;;;;;;;2.63;1.83;;;9.40;99.90;;;;;;5077346;28;20089;-68
2023/12/27 05:18:41;;;;;;;0.20;0.20;;;9.50;99.90;;;;;;5067704;28;20027;-68
2023/12/27 05:21:08;;;;;;;3.92;2.72;;;9.70;99.90;;;;;;5077113;28;20044;-70
2023/12/27 05:23:35;;;;;;;0.22;0.22;;;9.70;99.90;;;;;;5095065;28;20061;-69
2023/12/27 05:26:02;;;;;;;1.10;1.05;;;9.70;99.90;;;;;;5095227;28;20020;-69
2023/12/27 05:28:28;;;;;;;0.10;0.10;;;9.80;99.90;;;;;;5095344;28;20024;-70
2023/12/27 05:30:55;;;;;;;0.82;0.82;;;9.80;99.90;;;;;;5094937;28;20555;-69
2023/12/27 05:33:21;;;;;;;1.00;0.82;;;9.70;99.90;;;;;;5077016;28;20119;-69
2023/12/27 05:35:47;;;;;;;1.90;1.80;;;9.70;99.90;;;;;;5094872;28;20063;-70
2023/12/27 05:38:13;;;;;;;2.15;1.23;;;9.80;99.90;;;;;;5076898;28;20047;-69
2023/12/27 05:40:38;;;;;;;0.82;0.82;;;9.70;99.90;;;;;;5094426;28;20472;-69
2023/12/27 05:43:04;;;;;;;4.97;2.08;;;9.80;99.90;;;;;;5092477;28;20093;-69
2023/12/27 05:45:32;;;;;;;0.30;0.30;;;9.80;99.90;;;;;;5070665;28;20524;-69
2023/12/27 05:47:58;;;;;;;2.10;1.20;;;9.70;99.90;;;;;;5068952;28;20116;-69
2023/12/27 05:50:23;;;;;;;4.82;1.95;;;9.80;99.90;;;;;;5030193;28;20024;-69
2023/12/27 05:52:49;;;;;;;1.80;1.10;;;9.70;99.90;;;;;;5073735;28;20067;-69
2023/12/27 05:55:16;;;;;;;3.47;1.40;;;9.80;99.90;;;;;;5073944;28;20129;-69
2023/12/27 05:57:42;;;;;;;0.77;0.77;;;9.80;99.90;;;;;;5073280;28;20093;-70
2023/12/27 06:00:08;;;;;;;4.18;0.52;;;9.90;99.90;;;;;;5074368;28;20103;-68
2023/12/27 06:02:40;;;;;;;1.20;1.13;;;10.00;99.90;;;;;;5073932;28;20028;-69
2023/12/27 06:05:06;;;;;;;3.58;1.50;;;10.10;99.90;;;;;;5074120;28;20049;-69
2023/12/27 06:07:32;;;;;;;0.52;0.52;;;10.10;99.90;;;;;;5073218;28;20037;-69
2023/12/27 06:09:58;;;;;;;4.22;2.05;;;10.10;99.90;;;;;;5055548;28;20025;-70
2023/12/27 06:12:24;;;;;;;7.15;2.80;;;10.20;99.90;;;;;;5115509;23;20052;-69
2023/12/27 06:14:50;;;;;;;1.27;0.85;;;10.30;99.90;;;;;;5085236;28;20099;-70
2023/12/27 06:17:16;;;;;;;1.42;1.33;;;10.30;99.90;;;;;;5089628;28;20043;-69
2023/12/27 06:19:43;;;;;;;0.80;0.80;;;10.40;99.90;;;;;;5098975;28;20032;-69
2023/12/27 06:22:08;;;;;;;1.55;1.20;;;10.40;99.90;;;;;;5095750;22;20131;-69
2023/12/27 06:24:34;;;;;;;0.45;0.45;;;10.50;99.90;;;;;;5069944;28;20123;-68
2023/12/27 06:27:00;;;;;;;0.95;0.95;;;10.50;99.90;;;;;;5073594;28;20031;-68
2023/12/27 06:29:26;;;;;;;0.98;0.95;;;10.50;99.90;;;;;;5074309;28;20086;-69
2023/12/27 06:31:52;;;;;;;0.90;0.90;;;10.50;99.90;;;;;;5072520;28;20473;-69
2023/12/27 06:34:18;;;;;;;1.30;1.25;;;10.50;99.90;;;;;;5053617;28;20029;-69
2023/12/27 06:36:44;;;;;;;0.05;0.05;;;10.40;99.90;;;;;;5065302;28;20032;-69
2023/12/27 06:39:10;;;;;;;0.77;0.43;;;10.50;99.90;;;;;;5055373;28;20477;-70
2023/12/27 06:41:36;;;;;;;9.10;2.17;;;10.50;99.90;;;;;;5053646;28;20040;-70
2023/12/27 06:44:02;;;;;;;5.03;1.98;;;10.40;99.90;;;;;;5053542;28;20025;-70
2023/12/27 06:46:29;;;;;;;1.85;1.75;;;10.40;99.90;;;;;;5053740;28;20033;-69
2023/12/27 06:48:56;;;;;;;8.18;1.30;;;10.40;99.90;;;;;;5053416;28;20021;-69
2023/12/27 06:51:22;;;;;;;3.22;1.40;;;10.40;99.90;;;;;;5039218;28;20024;-70
2023/12/27 06:53:48;;;;;;;1.70;1.58;;;10.50;99.90;;;;;;5053465;28;20044;-69
2023/12/27 06:56:15;;;;;;;0.70;0.68;;;10.70;99.90;;;;;;5052025;28;20484;-69
2023/12/27 06:58:40;;;;;;;1.67;1.58;;;10.70;99.90;;;;;;5053220;28;20032;-69
2023/12/27 07:01:07;;;;;;;0.25;0.25;;;10.70;99.90;;;;;;5067347;28;20192;-68
2023/12/27 07:03:33;;;;;;;0.08;0.08;;;10.80;99.90;;;;;;5053107;28;20071;-71
2023/12/27 07:05:59;;;;;;;0.80;0.65;;;10.80;99.90;;;;;;5052735;28;20029;-70
2023/12/27 07:08:25;;;;;;;1.25;0.63;;;10.80;99.90;;;;;;5053071;28;20373;-70
2023/12/27 07:10:51;;;;;;;0.00;0.00;;;10.80;99.90;;;;;;5051647;28;20036;-69
2023/12/27 07:13:17;;;;;;;23.60;2.63;;;10.80;99.90;;;;;;5051558;28;20044;-69
2023/12/27 07:15:43;;;;;;;0.50;0.50;;;10.80;99.90;;;;;;5063593;28;20025;-68
2023/12/27 07:18:08;;;;;;;2.55;1.30;;;10.90;99.90;;;;;;5056229;28;20052;-69
2023/12/27 07:20:34;;;;;;;0.35;0.35;;;10.90;99.90;;;;;;5052614;28;20021;-69
2023/12/27 07:23:00;;;;;;;0.95;0.90;;;10.90;99.90;;;;;;5051831;28;20482;-69
2023/12/27 07:25:26;;;;;;;0.70;0.68;;;10.90;99.90;;;;;;5051717;28;20035;-70
2023/12/27 07:27:52;;;;;;;0.15;0.15;;;11.00;99.90;;;;;;5052989;28;20469;-71
2023/12/27 07:30:18;;;;;;;0.10;0.10;;;11.00;99.90;;;;;;5051162;28;20092;-70
2023/12/27 07:32:44;;;;;;;3.70;1.02;;;11.10;99.90;;;;;;5052821;28;20040;-69
2023/12/27 07:35:10;;;;;;;1.55;1.45;;;11.10;99.90;;;;;;5052464;28;20021;-69
2023/12/27 07:37:36;;;;;;;0.38;0.38;;;11.00;99.90;;;;;;5052810;28;20033;-69
2023/12/27 07:40:03;;;;;;;0.73;0.45;;;11.10;99.90;;;;;;5052627;28;20029;-70
2023/12/27 07:42:28;;;;;;;4.00;1.65;;;11.00;99.90;;;;;;5052551;28;20036;-70
2023/12/27 07:44:54;;;;;;;1.02;0.35;;;11.20;99.90;;;;;;5052732;28;20033;-70
2023/12/27 07:47:20;;;;;;;2.22;1.38;;;11.10;99.90;;;;;;5052686;28;20082;-70
2023/12/27 07:49:46;;;;;;;2.40;0.57;;;11.20;99.90;;;;;;5052128;28;20461;-70
2023/12/27 07:52:12;;;;;;;15.57;0.90;;;11.20;99.90;;;;;;5038059;28;20037;-69
2023/12/27 07:54:38;;;;;;;1.67;1.38;;;11.20;99.90;;;;;;5050093;28;20056;-70
2023/12/27 07:57:04;;;;;;;0.65;0.65;;;11.30;99.90;;;;;;5052663;28;20029;-70
2023/12/27 07:59:33;;;;;;;1.25;0.77;;;11.30;99.90;;;;;;5052666;28;20465;-69
2023/12/27 08:01:59;;;;;;;1.55;0.80;;;11.40;99.90;;;;;;5052369;28;20036;-69
2023/12/27 08:04:25;;;;;;;1.67;1.00;;;11.30;99.90;;;;;;5052128;28;20029;-69
2023/12/27 08:06:52;;;;;;;3.83;0.52;;;11.30;99.90;;;;;;5059961;28;20027;-69
2023/12/27 08:09:18;;;;;;;1.05;0.95;;;11.40;99.90;;;;;;5058528;28;20389;-70
2023/12/27 08:11:45;;;;;;;0.22;0.22;;;11.30;99.90;;;;;;5045943;28;20022;-70
2023/12/27 08:14:11;;;;;;;0.35;0.35;;;11.40;99.90;;;;;;5055740;28;20144;-69
2023/12/27 08:16:37;;;;;;;0.25;0.25;;;11.30;99.90;;;;;;5049368;28;20051;-69
2023/12/27 08:19:03;;;;;;;0.15;0.15;;;11.40;99.90;;;;;;5051580;28;20100;-69
2023/12/27 08:21:29;;;;;;;0.73;0.73;;;11.40;99.90;;;;;;5037867;28;20088;-69
2023/12/27 08:23:55;;;;;;;0.10;0.10;;;11.40;99.90;;;;;;5047784;28;20033;-70
2023/12/27 08:26:21;;;;;;;0.30;0.30;;;11.40;99.90;;;;;;5042162;28;20078;-70
2023/12/27 08:28:46;;;;;;;1.83;0.63;;;11.40;99.90;;;;;;5051575;28;20025;-69
2023/12/27 08:31:13;;;;;;;0.10;0.10;;;11.40;99.90;;;;;;5050553;28;20029;-69
2023/12/27 08:33:39;;;;;;;1.77;0.40;;;11.50;99.90;;;;;;5053209;28;20099;-69
2023/12/27 08:36:05;;;;;;;1.55;1.45;;;11.40;99.90;;;;;;5054391;28;20024;-69
2023/12/27 08:38:32;;;;;;;0.28;0.28;;;11.50;99.90;;;;;;5056055;28;20032;-69
2023/12/27 08:40:58;;;;;;;0.20;0.15;;;11.50;99.90;;;;;;5055547;28;20513;-69
2023/12/27 08:43:29;;;;;;;0.38;0.38;;;11.50;99.90;;;;;;5055991;28;20121;-69
2023/12/27 08:45:56;;;;;;;2.47;1.08;;;11.40;99.90;;;;;;5055388;28;20052;-70
2023/12/27 08:48:22;;;;;;;0.20;0.20;;;11.30;99.90;;;;;;5055635;28;20092;-68
2023/12/27 08:50:48;;;;;;;0.60;0.60;;;11.30;99.90;;;;;;5054312;28;20123;-69
2023/12/27 08:53:15;;;;;;;0.85;0.57;;;11.40;99.90;;;;;;5055575;28;20390;-69
2023/12/27 08:55:41;;;;;;;0.40;0.40;;;11.40;99.90;;;;;;5055648;28;20059;-69
2023/12/27 08:58:09;;;;;;;0.80;0.30;;;11.40;99.90;;;;;;5055337;28;20062;-70
2023/12/27 09:00:35;;;;;;;0.73;0.73;;;11.30;99.90;;;;;;5066071;28;20025;-69
2023/12/27 09:03:01;;;;;;;7.60;2.72;;;11.30;99.90;;;;;;5056947;28;20484;-69
2023/12/27 09:05:26;;;;;;;0.20;0.20;;;11.30;99.90;;;;;;5065326;28;20028;-68
2023/12/27 09:07:52;;;;;;;0.85;0.52;;;11.30;99.90;;;;;;5044930;28;20363;-69
2023/12/27 09:10:18;;;;;;;2.08;1.15;;;11.30;99.90;;;;;;5055022;28;20425;-69
2023/12/27 09:12:44;;;;;;;0.50;0.50;;;11.30;99.90;;;;;;5055195;28;20028;-70
2023/12/27 09:15:10;;;;;;;1.38;1.20;;;11.30;99.90;;;;;;5055241;28;20028;-69
2023/12/27 09:17:36;;;;;;;1.02;1.02;;;11.20;99.90;;;;;;5054741;28;20024;-69
2023/12/27 09:20:03;;;;;;;1.20;1.10;;;11.20;99.90;;;;;;5054948;28;20025;-70
2023/12/27 09:22:29;;;;;;;0.65;0.45;;;11.30;99.90;;;;;;5054737;28;20535;-69
2023/12/27 09:24:55;;;;;;;0.70;0.70;;;11.50;99.90;;;;;;5053758;28;20032;-68
2023/12/27 09:27:24;;;;;;;0.00;0.00;;;11.40;99.90;;;;;;5054766;28;20025;-69
2023/12/27 09:29:50;;;;;;;3.72;0.85;;;11.40;99.90;;;;;;5053705;28;20389;-69
2023/12/27 09:32:16;;;;;;;0.10;0.10;;;11.30;99.90;;;;;;5054283;28;20363;-70
2023/12/27 09:34:42;;;;;;;0.22;0.20;;;11.30;99.90;;;;;;5053807;28;20025;-72
2023/12/27 09:37:08;;;;;;;1.83;0.30;;;11.30;99.90;;;;;;5054536;28;20416;-69
2023/12/27 09:39:34;;;;;;;1.02;0.80;;;11.30;99.90;;;;;;5053761;28;20060;-69
2023/12/27 09:41:59;;;;;;;0.43;0.43;;;11.20;99.90;;;;;;5054502;28;20068;-70
2023/12/27 09:44:26;;;;;;;1.52;1.20;;;11.20;99.90;;;;;;5054262;28;20110;-70
2023/12/27 09:46:52;;;;;;;2.63;1.38;;;11.20;99.90;;;;;;5054202;28;20029;-69
2023/12/27 09:49:20;;;;;;;1.05;0.90;;;11.20;99.90;;;;;;5054364;28;20033;-69
2023/12/27 09:51:47;;;;;;;0.45;0.43;;;11.20;99.90;;;;;;5054326;28;20029;-70
2023/12/27 09:54:16;;;;;;;2.17;0.85;;;11.20;99.90;;;;;;5054336;28;20040;-68
2023/12/27 09:56:42;;;;;;;0.22;0.22;;;11.30;99.90;;;;;;5046421;28;20089;-71
2023/12/27 09:59:13;;;;;;;2.00;1.38;;;11.20;99.90;;;;;;5048263;28;20060;-68
2023/12/27 10:01:41;;;;;;;1.83;0.82;;;11.30;99.90;;;;;;5040618;28;20044;-70
2023/12/27 10:04:16;;;;;;;0.60;0.60;;;11.30;99.90;;;;;;5065417;22;20071;-69
2023/12/27 10:06:46;;;;;;;0.20;0.20;;;11.20;99.90;;;;;;5026551;28;20456;-69
2023/12/27 10:09:12;;;;;;;1.85;0.93;;;11.20;99.90;;;;;;5053989;28;20040;-69
2023/12/27 10:11:41;;;;;;;1.55;1.17;;;11.30;99.90;;;;;;5053937;28;20049;-69
2023/12/27 10:14:09;;;;;;;2.35;1.48;;;11.30;99.90;;;;;;5053770;28;20370;-69
2023/12/27 10:16:38;;;;;;;0.93;0.40;;;11.30;99.90;;;;;;5053618;28;20532;-69
2023/12/27 10:19:05;;;;;;;0.32;0.32;;;11.30;99.90;;;;;;5053765;28;20420;-70
2023/12/27 10:21:51;;;;;;;6.57;1.25;;;11.30;99.90;;;;;;5051296;28;20024;-69
2023/12/27 10:24:17;;;;;;;0.47;0.47;;;11.30;99.90;;;;;;5045116;28;20386;-70
2023/12/27 10:26:43;;;;;;;3.70;1.45;;;11.30;99.90;;;;;;5053745;28;20116;-70
2023/12/27 10:29:09;;;;;;;2.03;0.95;;;11.40;99.90;;;;;;5053062;28;20086;-70
2023/12/27 10:31:35;;;;;;;0.35;0.35;;;11.40;99.90;;;;;;5053443;28;20412;-72
2023/12/27 10:34:03;;;;;;;0.63;0.52;;;11.30;99.90;;;;;;5053168;28;20029;-71
2023/12/27 10:36:35;;;;;;;14.57;1.23;;;11.30;99.90;;;;;;5053502;28;20033;-69
2023/12/27 10:39:04;;;;;;;1.67;1.58;;;11.30;99.90;;;;;;5053018;28;20051;-71
2023/12/27 10:41:33;;;;;;;1.70;0.80;;;11.30;99.90;;;;;;5053378;28;20032;-70
2023/12/27 10:44:00;;;;;;;0.77;0.60;;;11.30;99.90;;;;;;5052471;28;20055;-70
2023/12/27 10:46:26;;;;;;;1.35;0.82;;;11.30;99.90;;;;;;5053146;28;20040;-70
2023/12/27 10:49:00;;;;;;;0.57;0.57;;;11.30;99.90;;;;;;5053311;28;20037;-71
2023/12/27 10:51:29;;;;;;;2.83;0.95;;;11.20;99.90;;;;;;5052515;28;20017;-70
2023/12/27 10:53:59;;;;;;;3.25;1.45;;;11.20;99.90;;;;;;5053716;28;20041;-70
2023/12/27 10:56:26;;;;;;;1.05;0.95;;;11.30;99.90;;;;;;5052343;28;20132;-69
2023/12/27 10:58:56;;;;;;;4.43;1.77;;;11.20;99.90;;;;;;5051774;28;20041;-69
2023/12/27 11:01:25;;;;;;;0.47;0.47;;;11.30;99.90;;;;;;5052996;28;20024;-71
2023/12/27 11:03:53;;;;;;;2.22;1.52;;;11.30;99.90;;;;;;5052923;28;20055;-69
2023/12/27 11:06:20;;;;;;;2.35;1.25;;;11.20;99.90;;;;;;5053004;28;20017;-70
2023/12/27 11:08:48;;;;;;;2.67;1.77;;;11.10;99.90;;;;;;5053237;28;20029;-68
2023/12/27 11:11:15;;;;;;;1.10;0.85;;;11.20;99.90;;;;;;5052975;28;20535;-70
2023/12/27 11:13:42;;;;;;;1.52;0.90;;;11.20;99.90;;;;;;5052561;28;20040;-71
2023/12/27 11:16:09;;;;;;;0.47;0.45;;;11.10;99.90;;;;;;5053237;28;20017;-70
2023/12/27 11:18:38;;;;;;;1.55;0.82;;;11.20;99.90;;;;;;5051684;28;20028;-71
2023/12/27 11:21:04;;;;;;;2.67;1.38;;;11.30;99.90;;;;;;5053126;28;20024;-71
2023/12/27 11:23:30;;;;;;;3.75;1.65;;;11.20;99.90;;;;;;5052568;28;20068;-70
2023/12/27 11:25:56;;;;;;;2.13;1.35;;;11.10;99.90;;;;;;5053202;28;20059;-71
2023/12/27 11:28:23;;;;;;;7.07;1.67;;;11.20;99.90;;;;;;5052498;28;20048;-70
2023/12/27 11:30:49;;;;;;;4.47;2.08;;;11.10;99.90;;;;;;5052881;28;20071;-71
2023/12/27 11:33:21;;;;;;;11.30;1.23;;;11.20;99.90;;;;;;5051334;28;20205;-70
2023/12/27 11:35:47;;;;;;;9.00;1.60;;;11.30;99.90;;;;;;5052808;28;20048;-70
2023/12/27 11:38:22;;;;;;;4.93;1.48;;;11.30;99.90;;;;;;5052756;28;20037;-70
2023/12/27 11:40:51;;;;;;;0.30;0.30;;;11.30;99.90;;;;;;5052765;28;20037;-71
2023/12/27 11:43:20;;;;;;;0.45;0.45;;;11.40;99.90;;;;;;5052429;28;20021;-70
2023/12/27 11:46:10;;;;;;;3.85;1.35;;;11.40;99.90;;;;;;5052680;28;20033;-71
2023/12/27 11:48:37;;;;;;;0.80;0.77;;;11.20;99.90;;;;;;5052592;28;20477;-69
2023/12/27 11:51:32;;;;;;;0.85;0.65;;;11.30;99.90;;;;;;5052708;28;20013;-70
2023/12/27 11:54:00;;;;;;;1.02;0.88;;;11.30;99.90;;;;;;5052372;28;20049;-72
2023/12/27 11:56:34;;;;;;;4.00;1.77;;;11.20;99.90;;;;;;5052270;28;20466;-69
2023/12/27 11:59:01;;;;;;;3.92;1.35;;;11.10;99.90;;;;;;5050640;28;20187;-72
2023/12/27 12:01:30;;;;;;;6.22;1.77;;;11.10;99.90;;;;;;5051253;28;20048;-71
2023/12/27 12:04:25;;;;;;;3.08;1.65;;;11.20;99.90;;;;;;5050970;28;20397;-70
2023/12/27 12:06:54;;;;;;;1.70;1.05;;;11.20;99.90;;;;;;5027805;28;20087;-71
2023/12/27 12:09:42;;;;;;;1.50;0.98;;;11.20;99.90;;;;;;5055467;28;20037;-71
2023/12/27 12:12:15;;;;;;;0.63;0.63;;;11.10;99.90;;;;;;5034180;28;20116;-71
2023/12/27 12:14:41;;;;;;;3.03;1.55;;;11.10;99.90;;;;;;5056082;28;20037;-69
2023/12/27 12:17:08;;;;;;;0.30;0.30;;;11.10;99.90;;;;;;5056314;28;20055;-70
2023/12/27 12:19:35;;;;;;;4.05;1.42;;;11.10;99.90;;;;;;5055976;28;20487;-72
2023/12/27 12:22:02;;;;;;;9.20;1.77;;;11.20;99.90;;;;;;5054913;28;20028;-70
2023/12/27 12:24:27;;;;;;;5.47;1.02;;;11.10;99.90;;;;;;5056006;28;20063;-71
2023/12/27 12:26:54;;;;;;;2.17;1.48;;;11.10;99.90;;;;;;5055720;28;20037;-71
2023/12/27 12:29:29;;;;;;;0.73;0.73;;;11.10;99.90;;;;;;5056022;28;20029;-71
2023/12/27 12:31:55;;;;;;;6.18;2.38;;;11.10;99.90;;;;;;5055821;28;20063;-71
2023/12/27 12:34:25;;;;;;;6.35;0.90;;;11.10;99.90;;;;;;5055893;28;20071;-70
2023/12/27 12:36:54;;;;;;;0.93;0.82;;;11.00;99.90;;;;;;5056118;28;20033;-70
2023/12/27 12:39:20;;;;;;;1.75;0.82;;;11.10;99.90;;;;;;5055304;28;20025;-70
2023/12/27 12:41:46;;;;;;;1.17;0.70;;;11.20;99.90;;;;;;5055762;28;20032;-69
2023/12/27 12:44:12;;;;;;;9.63;0.38;;;11.10;99.90;;;;;;5056205;28;20378;-71
2023/12/27 12:46:39;;;;;;;21.73;1.88;;;11.00;99.90;;;;;;5055467;28;20043;-70
2023/12/27 12:49:06;;;;;;;1.90;0.75;;;11.00;99.90;;;;;;5055658;28;20112;-70